Latest Weather Observations for Oodnadatta

IDS60801

Issued at 3:31 pm CST Thursday 30 July 2015 (issued every 30 minutes, with the page automatically refreshed every 10 minutes)

About weather observations | Map of weather stations | Latest weather observations for SA | Other Formats
Station Details ID: 017043 Name: OODNADATTA AIRPORT Lat: -27.56 Lon: 135.45 Height: 116.5 m
Data from the previous 72 hours. | See also: Recent months at Oodnadatta
Date/Time
CST
Temp
°C
App
Temp
°C
Dew
Point
Rel
Hum
%
Delta-T
°C
Wind Press
QNH
hPa
Press
MSL
hPa
Rain
since 9 am
mm
Dir
 
Spd
km/h
Gust
km/h
Spd
kts
Gust
kts
30/03:30pm 23.4 17.3 -3.8 16 11.5 NW 19 26 10 14 1020.8 - 0.0
30/03:00pm 23.5 17.2 -3.7 16 11.5 N 20 26 11 14 1020.9 1020.9 0.0
30/02:30pm 23.3 16.3 -3.1 17 11.4 N 24 30 13 16 1021.0 - 0.0
30/02:00pm 22.2 15.6 -3.2 18 10.8 N 22 30 12 16 1021.5 - 0.0
30/01:30pm 21.6 15.0 -3.0 19 10.4 N 22 30 12 16 1022.3 - 0.0
30/01:00pm 20.8 14.4 -1.7 22 9.7 N 22 30 12 16 1022.8 - 0.0
30/12:30pm 19.8 13.4 -1.9 23 9.3 NNW 22 30 12 16 1023.8 - 0.0
30/12:00pm 19.0 12.2 -2.0 24 8.8 NNW 24 32 13 17 1024.6 1024.6 0.0
30/11:30am 18.0 11.2 -1.8 26 8.3 NNW 24 32 13 17 1025.1 - 0.0
30/11:00am 17.1 10.7 -1.5 28 7.8 NNW 22 30 12 16 1025.6 - 0.0
30/10:30am 16.1 9.3 -1.5 30 7.3 NNW 24 30 13 16 1025.9 - 0.0
30/10:00am 15.0 9.0 -1.5 32 6.8 NNW 20 26 11 14 1025.9 - 0.0
30/09:30am 13.4 8.5 -0.6 38 5.8 NNW 15 22 8 12 1026.0 - 0.0
30/09:00am 9.7 5.2 -0.2 50 3.9 NNW 13 15 7 8 1025.8 1025.9 0.0
30/08:30am 8.3 4.1 -0.7 53 3.5 NNW 11 15 6 8 1025.6 - 0.0
30/08:00am 6.2 2.0 -0.7 61 2.6 NW 11 13 6 7 1025.4 - 0.0
30/07:30am 5.4 2.0 -0.8 64 2.3 NW 7 9 4 5 1024.9 - 0.0
30/07:00am 5.0 1.2 -1.0 65 2.2 NW 9 11 5 6 1024.4 - 0.0
30/06:30am 5.6 1.4 -1.1 62 2.5 NNW 11 11 6 6 1024.2 - 0.0
30/06:00am 7.5 2.5 -1.2 54 3.3 NNW 15 17 8 9 1024.0 1024.0 0.0
30/05:30am 7.5 2.9 -1.4 53 3.4 N 13 17 7 9 1023.7 - 0.0
30/05:00am 8.8 3.1 -1.0 50 3.8 NNE 19 24 10 13 1023.5 - 0.0
30/04:30am 9.0 3.3 -1.1 49 3.9 N 19 24 10 13 1023.7 - 0.0
30/04:00am 8.8 2.9 -1.0 50 3.8 NNE 20 26 11 14 1023.9 - 0.0
30/03:30am 9.0 3.7 -0.9 50 3.9 NNE 17 22 9 12 1024.2 - 0.0
30/03:00am 9.2 4.2 -0.9 49 3.9 NNE 15 19 8 10 1024.5 1024.5 0.0
30/02:30am 9.3 4.0 -0.8 49 4.0 NNE 17 22 9 12 1024.8 - 0.0
30/02:00am 10.0 4.3 -1.1 46 4.4 NNE 19 22 10 12 1025.0 - 0.0
30/01:30am 10.0 3.8 -0.5 48 4.2 NE 22 24 12 13 1025.1 - 0.0
30/01:00am 9.7 4.1 -0.2 50 4.0 NE 19 20 10 11 1025.3 - 0.0
30/12:30am 9.9 4.7 0.0 50 4.0 NE 17 19 9 10 1025.4 - 0.0
30/12:00am 10.3 5.5 0.1 49 4.1 NE 15 17 8 9 1025.6 1025.7 0.0
 
Date/Time
CST
Temp
°C
App
Temp
°C
Dew
Point
Rel
Hum
%
Delta-T
°C
Wind Press
QNH
hPa
Press
MSL
hPa
Rain
since 9 am
mm
Dir
 
Spd
km/h
Gust
km/h
Spd
kts
Gust
kts
29/11:30pm 10.4 5.6 0.2 49 4.2 NE 15 17 8 9 1025.7 - 0.0
29/11:00pm 10.8 6.4 0.2 48 4.3 NNE 13 17 7 9 1025.8 - 0.0
29/10:30pm 11.3 6.9 0.1 46 4.6 NNE 13 15 7 8 1025.8 - 0.0
29/10:00pm 12.7 7.8 -0.5 40 5.4 NNE 15 17 8 9 1026.0 - 0.0
29/09:30pm 13.9 8.9 -0.9 36 6.1 NNE 15 19 8 10 1026.2 - 0.0
29/09:00pm 14.1 8.4 -1.1 35 6.2 NNE 19 22 10 12 1026.2 1026.3 0.0
29/08:30pm 13.9 8.9 -1.3 35 6.2 NNE 15 17 8 9 1026.3 - 0.0
29/08:00pm 13.8 8.8 -1.0 36 6.1 NNE 15 17 8 9 1026.0 - 0.0
29/07:30pm 14.6 10.0 -1.1 34 6.5 NNE 13 17 7 9 1025.9 - 0.0
29/07:00pm 14.6 10.0 -1.1 34 6.5 NNE 13 13 7 7 1025.7 - 0.0
29/06:30pm 15.8 11.5 -1.7 30 7.2 NNE 11 13 6 7 1025.3 - 0.0
29/06:00pm 17.0 11.8 -2.6 26 8.0 NNE 15 22 8 12 1025.0 1025.1 0.0
29/05:30pm 17.9 11.9 -2.9 24 8.5 N 19 24 10 13 1024.8 - 0.0
29/05:00pm 18.3 12.4 -2.6 24 8.7 NNE 19 26 10 14 1024.8 - 0.0
29/04:30pm 18.1 12.9 -2.8 24 8.6 NNE 15 19 8 10 1025.2 - 0.0
29/04:00pm 18.8 14.4 -2.7 23 8.9 N 11 19 6 10 1025.6 - 0.0
29/03:30pm 18.4 13.2 -2.5 24 8.7 N 15 24 8 13 1025.7 - 0.0
29/03:00pm 18.4 13.2 -2.5 24 8.6 N 15 24 8 13 1026.0 1026.1 0.0
29/02:30pm 17.9 12.4 -2.4 25 8.4 N 17 24 9 13 1026.5 - 0.0
29/02:00pm 17.8 11.8 -1.9 26 8.3 N 20 26 11 14 1026.6 - 0.0
29/01:30pm 17.5 11.7 -1.2 28 7.9 NNE 19 24 10 13 1027.3 - 0.0
29/01:00pm 16.6 10.9 -1.0 30 7.4 N 19 30 10 16 1028.4 - 0.0
29/12:30pm 16.3 10.0 -1.3 30 7.4 N 22 30 12 16 1028.9 - 0.0
29/12:00pm 16.4 9.4 -0.3 32 7.1 N 26 35 14 19 1029.4 1029.4 0.0
29/11:30am 15.0 7.2 -1.1 33 6.7 N 30 35 16 19 1030.0 - 0.0
29/11:00am 14.4 6.6 -0.8 35 6.3 N 30 39 16 21 1030.5 - 0.0
29/10:30am 13.9 5.8 -0.5 37 6.0 NNE 32 39 17 21 1031.2 - 0.0
29/10:00am 13.2 5.2 0.6 42 5.3 NNE 32 37 17 20 1030.8 - 0.0
29/09:30am 11.6 5.2 0.7 47 4.6 NNE 24 32 13 17 1031.1 - 0.0
29/09:00am 9.6 6.9 0.5 53 3.7 NE 4 7 2 4 1032.1 1032.2 0.0
29/08:30am 7.0 5.2 1.1 66 2.4 CALM 0 0 0 0 1031.9 - 0.0
29/08:00am 6.6 3.5 0.1 63 2.5 NNE 6 7 3 4 1031.3 - 0.0
29/07:30am 6.4 2.7 0.1 64 2.5 NE 9 11 5 6 1031.1 - 0.0
29/07:00am 6.3 1.8 -0.2 63 2.5 NE 13 15 7 8 1030.6 - 0.0
29/06:30am 6.0 1.2 -0.1 65 2.4 NE 15 17 8 9 1029.9 - 0.0
29/06:00am 6.0 1.5 -0.3 64 2.4 NNE 13 15 7 8 1029.7 1029.7 0.0
29/05:30am 6.0 1.9 0.1 66 2.3 NNE 11 15 6 8 1029.7 - 0.0
29/05:00am 4.2 2.1 -0.8 70 1.9 CALM 0 6 0 3 1030.3 - 0.0
29/04:30am 5.9 3.4 -0.8 62 2.5 NNE 2 6 1 3 1029.8 - 0.0
29/04:00am 5.8 1.7 -0.5 64 2.4 NE 11 13 6 7 1029.6 - 0.0
29/03:30am 5.8 3.7 -0.5 64 2.4 CALM 0 0 0 0 1029.8 - 0.0
29/03:00am 6.8 3.4 -0.4 60 2.8 E 7 9 4 5 1029.8 1029.8 0.0
29/02:30am 6.7 3.6 0.4 64 2.5 NE 6 9 3 5 1030.3 - 0.0
29/02:00am 5.7 3.5 1.1 72 1.8 NE 2 6 1 3 1030.7 - 0.0
29/01:30am 5.6 2.1 1.2 73 1.7 NE 9 11 5 6 1030.9 - 0.0
29/01:00am 6.0 3.4 1.2 71 1.9 NE 4 9 2 5 1031.2 - 0.0
29/12:30am 6.7 2.0 0.8 66 2.3 NE 15 17 8 9 1031.4 - 0.0
29/12:00am 6.4 2.4 0.7 67 2.2 ENE 11 11 6 6 1031.8 1031.8 0.0
 
Date/Time
CST
Temp
°C
App
Temp
°C
Dew
Point
Rel
Hum
%
Delta-T
°C
Wind Press
QNH
hPa
Press
MSL
hPa
Rain
since 9 am
mm
Dir
 
Spd
km/h
Gust
km/h
Spd
kts
Gust
kts
28/11:30pm 6.6 2.3 0.9 67 2.3 ENE 13 13 7 7 1032.0 - 0.0
28/11:00pm 7.2 3.3 1.3 66 2.4 ENE 11 13 6 7 1032.2 - 0.0
28/10:00pm 8.2 4.3 1.4 62 2.8 ENE 11 13 6 7 1032.4 - 0.0
28/09:30pm 8.8 4.9 1.2 59 3.1 E 11 13 6 7 1032.3 - 0.0
28/09:00pm 10.3 5.6 0.6 51 3.9 E 15 17 8 9 1032.3 1032.4 0.0
28/08:30pm 10.0 5.4 1.4 55 3.6 ESE 15 17 8 9 1032.2 - 0.0
28/08:00pm 10.3 5.6 1.2 53 3.8 ESE 15 17 8 9 1032.2 - 0.0
28/07:30pm 10.8 6.5 0.8 50 4.2 SE 13 17 7 9 1032.3 - 0.0
28/07:00pm 12.1 7.3 0.5 45 4.8 SE 15 17 8 9 1032.0 - 0.0
28/06:30pm 13.2 8.4 0.3 41 5.4 ESE 15 17 8 9 1031.7 - 0.0
28/06:00pm 14.7 10.2 -0.6 35 6.3 E 13 19 7 10 1031.3 1031.3 0.0
28/05:30pm 15.8 10.5 -0.8 32 7.0 ESE 17 22 9 12 1031.2 - 0.0
28/05:00pm 16.4 11.0 -1.2 30 7.4 E 17 20 9 11 1031.1 - 0.0
28/04:30pm 16.6 11.2 -1.0 30 7.4 E 17 22 9 12 1030.7 - 0.0
28/04:00pm 17.1 11.7 -1.1 29 7.7 E 17 24 9 13 1030.4 - 0.0
28/03:30pm 16.7 10.8 -0.5 31 7.3 E 20 30 11 16 1030.6 - 0.0
28/03:00pm 16.6 11.0 -0.1 32 7.1 ENE 19 24 10 13 1031.3 1031.3 0.0
28/02:30pm 16.4 9.9 0.1 33 7.0 ENE 24 35 13 19 1031.1 - 0.0
28/02:00pm 16.3 10.2 0.4 34 6.9 ENE 22 32 12 17 1031.5 - 0.0
28/01:30pm 15.8 9.4 0.8 36 6.5 ENE 24 33 13 18 1032.2 - 0.0
28/01:00pm 15.4 8.6 0.8 37 6.3 ENE 26 33 14 18 1032.9 - 0.0
28/12:30pm 14.5 8.4 0.7 39 5.9 ENE 22 32 12 17 1033.7 - 0.0
28/12:00pm 14.7 8.4 1.6 41 5.7 ENE 24 30 13 16 1034.6 1034.7 0.0
28/11:30am 14.4 7.7 1.7 42 5.6 E 26 32 14 17 1035.5 - 0.0
28/11:00am 13.5 6.8 1.5 44 5.2 E 26 32 14 17 1035.8 - 0.0
28/10:30am 13.0 7.1 1.7 46 4.9 E 22 32 12 17 1036.6 - 0.0
28/10:00am 11.9 6.5 2.4 52 4.1 E 20 26 11 14 1036.9 - 0.0
28/09:30am 9.9 5.5 2.7 61 3.1 E 15 19 8 10 1036.8 - 0.0
28/09:00am 7.9 5.0 2.8 70 2.1 SE 7 9 4 5 1036.7 1036.8 0.0
28/08:30am 6.3 3.0 2.6 77 1.5 SE 9 13 5 7 1036.6 - 0.0
28/08:00am 4.6 1.8 2.1 84 1.0 SE 6 7 3 4 1036.3 - 0.0
28/07:30am 2.9 0.0 1.4 90 0.6 SE 6 6 3 3 1036.4 - 0.0
28/07:00am 2.8 -0.3 1.3 90 0.6 SE 7 9 4 5 1035.6 - 0.0
28/06:30am 3.0 -0.4 1.7 91 0.5 SE 9 11 5 6 1034.6 - 0.0
28/06:00am 3.1 -1.1 1.8 91 0.5 SE 13 13 7 7 1034.1 1034.2 0.0
28/05:30am 3.8 1.0 2.2 89 0.6 ESE 6 7 3 4 1033.8 - 0.0
28/05:00am 4.0 1.2 2.2 88 0.7 ESE 6 7 3 4 1033.5 - 0.0
28/04:30am 4.7 1.4 2.7 87 0.8 ESE 9 11 5 6 1033.4 - 0.0
28/04:00am 4.5 0.8 2.5 87 0.8 ESE 11 13 6 7 1033.4 - 0.0
28/03:30am 5.1 2.2 2.8 85 0.9 ESE 7 9 4 5 1033.7 - 0.0
28/03:00am 5.8 2.3 3.3 84 1.0 ESE 11 11 6 6 1034.0 1034.1 0.0
28/02:30am 5.8 2.6 3.3 84 1.0 ESE 9 11 5 6 1034.4 - 0.0
28/02:00am 6.0 2.8 3.3 83 1.1 ESE 9 9 5 5 1034.5 - 0.0
28/01:30am 6.0 2.9 3.5 84 1.1 ESE 9 11 5 6 1034.7 - 0.0
28/01:00am 6.6 3.5 3.8 82 1.2 ESE 9 11 5 6 1034.6 - 0.0
28/12:30am 7.0 4.3 3.6 79 1.5 ESE 7 9 4 5 1034.7 - 0.0
28/12:00am 7.7 5.0 3.6 75 1.7 ESE 7 9 4 5 1034.8 1034.9 0.0
 
Date/Time
CST
Temp
°C
App
Temp
°C
Dew
Point
Rel
Hum
%
Delta-T
°C
Wind Press
QNH
hPa
Press
MSL
hPa
Rain
since 9 am
mm
Dir
 
Spd
km/h
Gust
km/h
Spd
kts
Gust
kts
27/11:30pm 8.0 4.9 3.7 74 1.9 ESE 9 11 5 6 1034.9 - 0.0
27/11:00pm 8.4 4.9 3.5 71 2.1 SE 11 11 6 6 1035.0 - 0.0
27/10:30pm 9.0 5.5 3.6 69 2.4 SE 11 13 6 7 1034.9 - 0.0
27/10:00pm 9.9 6.0 3.4 64 2.8 SE 13 15 7 8 1034.8 - 0.0
27/09:30pm 11.3 6.7 3.6 59 3.4 SE 17 19 9 10 1034.7 - 0.0
27/09:00pm 11.1 7.2 3.6 60 3.3 SSE 13 15 7 8 1034.5 1034.6 0.0
27/08:30pm 12.3 8.1 3.8 56 3.8 SSE 15 17 8 9 1034.4 - 0.0
27/08:00pm 13.1 8.5 3.5 52 4.3 SSE 17 20 9 11 1034.1 - 0.0
27/07:30pm 12.7 9.3 3.9 55 4.0 SSE 11 13 6 7 1033.9 - 0.0
27/07:00pm 13.8 9.8 3.0 48 4.8 SE 13 15 7 8 1033.5 - 0.0
27/06:30pm 14.6 9.8 2.8 45 5.3 SE 17 20 9 11 1033.0 - 0.0
27/06:00pm 15.3 10.1 2.5 42 5.7 SE 19 22 10 12 1032.9 1033.0 0.0
27/05:30pm 15.9 11.0 2.3 40 6.1 SSE 17 26 9 14 1032.6 - 0.0
27/05:00pm 16.4 11.0 2.4 39 6.3 SSE 20 28 11 15 1032.4 - 0.0
27/04:30pm 16.7 12.2 2.3 38 6.5 SE 15 20 8 11 1032.2 - 0.0
27/04:00pm 16.8 11.7 2.8 39 6.4 ESE 19 24 10 13 1032.1 - 0.0

Other Formats:

Comma delimited format used in spreadsheet applications
http://www.bom.gov.au/fwo/IDS60801/IDS60801.94476.axf

JavaScript Object Notation format (JSON) in row-major order
http://www.bom.gov.au/fwo/IDS60801/IDS60801.94476.json